Tilley, Canada
Current Conditions -  °F | °C
As of 3:00 AM on Sunday 25 Jan 2015 (Local Time) from CYXH Reporting Station
Few Clouds Few Clouds  
Wind Chill: 27°   Ceiling: Unl
Heat Index: 32°   Visibility: 9mi
Dew Point: 27°   Wind: 5mph
Humidity: 80%   Direction: 220°SW
Pressure: 29.91"   Gusts: NA
Location:  50.45°N, 111.65°W
Report Text: CYXH 251000Z AUTO 22004KT 9SM FEW240 00/M03 A2991 RMK SLP148
Loading
Personal Weather Stations






























Interactive Weather Map New forecast layout! Learn more

10-Day Weather Forecast

Advertisements
Track Severe Weather on mobile